Time;durP1;ratioP1;P1;durP2;ratioP2;P2;SDS_P1;SDS_P2;PMS_P1;PMS_P2;Temp;Humidity;BMP_temperature;BMP_pressure;BME280_temperature;BME280_humidity;BME280_pressure;Samples;Min_cycle;Max_cycle;Signal;HPM_P1;HPM_P2
2021/01/01 00:03:18;;;;;;;;;;;3.90;99.90;;;;;;10463853;28;20342;-69
2021/01/01 00:08:20;;;;;;;;;;;3.80;99.90;;;;;;10449017;28;19931;-69
2021/01/01 00:13:21;;;;;;;;;;;3.70;99.90;;;;;;10449255;28;20050;-68
2021/01/01 00:18:23;;;;;;;;;;;3.70;99.90;;;;;;10448753;28;19929;-68
2021/01/01 00:23:24;;;;;;;;;;;3.80;99.90;;;;;;10447001;28;19924;-69
2021/01/01 00:28:26;;;;;;;;;;;3.80;99.90;;;;;;10448369;28;19933;-68
2021/01/01 00:33:27;;;;;;;;;;;3.80;99.90;;;;;;10448350;28;19960;-68
2021/01/01 00:38:28;;;;;;;;;;;3.80;99.90;;;;;;10447837;28;19964;-68
2021/01/01 00:43:29;;;;;;;;;;;3.80;99.90;;;;;;10448161;28;19960;-68
2021/01/01 00:48:31;;;;;;;;;;;3.70;99.90;;;;;;10447447;28;19925;-68
2021/01/01 00:53:32;;;;;;;;;;;3.70;99.90;;;;;;10447663;28;19924;-68
2021/01/01 00:58:34;;;;;;;;;;;3.80;99.90;;;;;;10447139;28;20538;-68
2021/01/01 01:03:35;;;;;;;;;;;3.80;99.90;;;;;;10447317;28;20460;-68
2021/01/01 01:08:36;;;;;;;;;;;3.80;99.90;;;;;;10447578;28;20003;-68
2021/01/01 01:13:38;;;;;;;;;;;3.80;99.90;;;;;;10446999;28;19925;-69
2021/01/01 01:18:39;;;;;;;;;;;3.70;99.90;;;;;;10446690;28;19928;-69
2021/01/01 01:23:45;;;;;;;;;;;3.80;99.90;;;;;;10446284;28;19932;-68
2021/01/01 01:28:47;;;;;;;;;;;3.80;99.90;;;;;;10442764;28;20023;-68
2021/01/01 01:33:48;;;;;;;;;;;3.80;99.90;;;;;;10444818;28;19994;-68
2021/01/01 01:38:50;;;;;;;;;;;3.80;99.90;;;;;;10443144;28;20012;-68
2021/01/01 01:43:51;;;;;;;;;;;3.90;99.90;;;;;;10443273;28;19929;-68
2021/01/01 01:48:53;;;;;;;;;;;3.80;99.90;;;;;;10420409;28;19929;-68
2021/01/01 01:53:54;;;;;;;;;;;3.70;99.90;;;;;;10442517;28;20387;-68
2021/01/01 01:58:56;;;;;;;;;;;3.80;99.90;;;;;;10443343;28;20535;-68
2021/01/01 02:03:57;;;;;;;;;;;3.80;99.90;;;;;;10445240;28;19974;-68
2021/01/01 02:08:59;;;;;;;;;;;3.80;99.90;;;;;;10444086;28;19975;-68
2021/01/01 02:14:01;;;;;;;;;;;3.80;99.90;;;;;;10444456;28;19968;-68
2021/01/01 02:19:02;;;;;;;;;;;3.70;99.90;;;;;;10443083;28;19925;-68
2021/01/01 02:24:04;;;;;;;;;;;3.80;99.90;;;;;;10447340;28;19975;-68
2021/01/01 02:29:05;;;;;;;;;;;3.90;99.90;;;;;;10451052;28;19968;-68
2021/01/01 02:34:07;;;;;;;;;;;3.90;99.90;;;;;;10449525;28;19969;-68
2021/01/01 02:39:08;;;;;;;;;;;3.90;99.90;;;;;;10449339;28;20276;-67
2021/01/01 02:44:09;;;;;;;;;;;3.80;99.90;;;;;;10449395;28;19925;-68
2021/01/01 02:49:10;;;;;;;;;;;3.90;99.90;;;;;;10449225;28;20027;-68
2021/01/01 02:54:12;;;;;;;;;;;3.90;99.90;;;;;;10448565;28;19932;-68
2021/01/01 02:59:13;;;;;;;;;;;3.90;99.90;;;;;;10447863;28;20059;-68
2021/01/01 03:04:15;;;;;;;;;;;3.90;99.90;;;;;;10454202;28;19929;-67
2021/01/01 03:09:16;;;;;;;;;;;3.90;99.90;;;;;;10456582;28;19979;-68
2021/01/01 03:14:17;;;;;;;;;;;3.90;99.90;;;;;;10455477;28;19956;-68
2021/01/01 03:19:19;;;;;;;;;;;3.90;99.90;;;;;;10457825;28;19924;-68
2021/01/01 03:24:20;;;;;;;;;;;3.80;99.90;;;;;;10457324;28;19968;-67
2021/01/01 03:29:21;;;;;;;;;;;3.80;99.90;;;;;;10456269;28;19932;-68
2021/01/01 03:34:22;;;;;;;;;;;3.80;99.90;;;;;;10456624;28;19971;-68
2021/01/01 03:39:24;;;;;;;;;;;3.80;99.90;;;;;;10415814;28;20377;-68
2021/01/01 03:44:25;;;;;;;;;;;3.70;99.90;;;;;;10456504;28;20401;-67
2021/01/01 03:49:26;;;;;;;;;;;3.70;99.90;;;;;;10456737;28;19925;-67
2021/01/01 03:54:28;;;;;;;;;;;3.70;99.90;;;;;;10456177;28;19924;-67
2021/01/01 03:59:29;;;;;;;;;;;3.80;99.90;;;;;;10456056;28;20043;-68
2021/01/01 04:04:30;;;;;;;;;;;3.70;99.90;;;;;;10452525;28;20019;-68
2021/01/01 04:09:32;;;;;;;;;;;3.70;99.90;;;;;;10450160;28;20368;-67
2021/01/01 04:14:33;;;;;;;;;;;3.80;99.90;;;;;;10447183;28;19928;-68
2021/01/01 04:19:34;;;;;;;;;;;3.70;99.90;;;;;;10447976;28;20024;-68
2021/01/01 04:24:35;;;;;;;;;;;3.70;99.90;;;;;;10448243;28;19953;-68
2021/01/01 04:29:37;;;;;;;;;;;3.70;99.90;;;;;;10447646;28;19925;-68
2021/01/01 04:34:38;;;;;;;;;;;3.70;99.90;;;;;;10447694;28;19929;-67
2021/01/01 04:39:39;;;;;;;;;;;3.70;99.90;;;;;;10446246;28;20245;-68
2021/01/01 04:44:41;;;;;;;;;;;3.70;99.90;;;;;;10446406;28;19952;-67
2021/01/01 04:49:42;;;;;;;;;;;3.70;99.90;;;;;;10447464;28;19928;-67
2021/01/01 04:54:44;;;;;;;;;;;3.70;99.90;;;;;;10446962;28;20335;-69
2021/01/01 04:59:46;;;;;;;;;;;3.70;99.90;;;;;;10446180;28;20028;-69
2021/01/01 05:04:48;;;;;;;;;;;3.60;99.90;;;;;;10446926;28;19996;-69
2021/01/01 05:09:49;;;;;;;;;;;3.70;99.90;;;;;;10447116;28;19929;-68
2021/01/01 05:14:53;;;;;;;;;;;3.70;99.90;;;;;;10445851;28;19948;-69
2021/01/01 05:20:02;;;;;;;;;;;3.70;99.90;;;;;;10446426;28;20299;-68
2021/01/01 05:25:05;;;;;;;;;;;3.80;99.90;;;;;;10446340;28;19925;-68
2021/01/01 05:30:09;;;;;;;;;;;3.80;99.90;;;;;;10446131;28;19932;-69
2021/01/01 05:35:24;;;;;;;;;;;3.80;99.90;;;;;;10444934;28;19990;-68
2021/01/01 05:40:29;;;;;;;;;;;3.80;99.90;;;;;;10446002;28;20367;-69
2021/01/01 05:45:31;;;;;;;;;;;3.80;99.90;;;;;;10445850;28;19925;-69
2021/01/01 05:50:33;;;;;;;;;;;3.80;99.90;;;;;;10419641;28;19968;-69
2021/01/01 05:55:34;;;;;;;;;;;3.80;99.90;;;;;;10432604;28;19972;-69
2021/01/01 06:00:36;;;;;;;;;;;3.80;99.90;;;;;;10451444;28;20015;-69
2021/01/01 06:05:59;;;;;;;;;;;3.80;99.90;;;;;;10453679;28;19931;-69
2021/01/01 06:11:01;;;;;;;;;;;3.70;99.90;;;;;;10453219;28;19928;-69
2021/01/01 06:16:04;;;;;;;;;;;3.70;99.90;;;;;;10452801;28;19975;-68
2021/01/01 06:21:07;;;;;;;;;;;3.70;99.90;;;;;;10452091;28;19979;-67
2021/01/01 06:26:10;;;;;;;;;;;3.70;99.90;;;;;;10452742;28;19924;-67
2021/01/01 06:31:11;;;;;;;;;;;3.80;99.90;;;;;;10452322;28;19991;-67
2021/01/01 06:36:31;;;;;;;;;;;3.80;99.90;;;;;;10452139;28;19925;-68
2021/01/01 06:41:42;;;;;;;;;;;3.70;99.90;;;;;;10452031;28;19985;-68
2021/01/01 06:46:44;;;;;;;;;;;3.70;99.90;;;;;;10451643;28;20015;-68
2021/01/01 06:51:45;;;;;;;;;;;3.80;99.90;;;;;;10452386;28;19935;-68
2021/01/01 06:56:47;;;;;;;;;;;3.80;99.90;;;;;;10451323;28;19987;-68
2021/01/01 07:01:48;;;;;;;;;;;3.90;99.90;;;;;;10451666;28;19972;-68
2021/01/01 07:06:50;;;;;;;;;;;3.90;99.90;;;;;;10466360;28;20385;-68
2021/01/01 07:11:51;;;;;;;;;;;3.80;99.90;;;;;;10450718;28;19932;-68
2021/01/01 07:16:54;;;;;;;;;;;3.80;99.90;;;;;;10450682;28;19979;-68
2021/01/01 07:21:56;;;;;;;;;;;3.80;99.90;;;;;;10451159;28;20357;-68
2021/01/01 07:26:57;;;;;;;;;;;3.80;99.90;;;;;;10450208;28;20381;-68
2021/01/01 07:31:59;;;;;;;;;;;3.80;99.90;;;;;;10450161;28;19924;-67
2021/01/01 07:37:02;;;;;;;;;;;3.80;99.90;;;;;;10450117;28;20173;-67
2021/01/01 07:42:06;;;;;;;;;;;3.80;99.90;;;;;;10449234;28;19935;-69
2021/01/01 07:47:11;;;;;;;;;;;3.70;99.90;;;;;;10448532;28;20381;-69
2021/01/01 07:52:14;;;;;;;;;;;3.70;99.90;;;;;;10449413;28;19978;-69
2021/01/01 07:57:19;;;;;;;;;;;3.80;99.90;;;;;;10449706;28;19984;-68
2021/01/01 08:02:21;;;;;;;;;;;3.80;99.90;;;;;;10448923;28;20379;-69
2021/01/01 08:07:23;;;;;;;;;;;3.80;99.90;;;;;;10449004;28;19964;-69
2021/01/01 08:12:24;;;;;;;;;;;3.80;99.90;;;;;;10448388;28;20020;-69
2021/01/01 08:17:31;;;;;;;;;;;3.90;99.90;;;;;;10447762;28;20019;-68
2021/01/01 08:22:34;;;;;;;;;;;3.90;99.90;;;;;;10447474;28;19929;-68
2021/01/01 08:27:35;;;;;;;;;;;3.90;99.90;;;;;;10448606;28;19964;-68
2021/01/01 08:32:39;;;;;;;;;;;3.90;99.90;;;;;;10447792;28;19932;-69
2021/01/01 08:37:40;;;;;;;;;;;4.00;99.90;;;;;;10447439;28;20020;-68
2021/01/01 08:42:41;;;;;;;;;;;4.00;99.90;;;;;;10446839;28;20411;-69
2021/01/01 08:47:48;;;;;;;;;;;4.10;99.90;;;;;;10447049;28;20436;-69
2021/01/01 08:52:50;;;;;;;;;;;4.10;99.90;;;;;;10446866;28;20406;-68
2021/01/01 08:58:07;;;;;;;;;;;4.10;99.90;;;;;;10447061;28;20340;-68
2021/01/01 09:03:09;;;;;;;;;;;4.10;99.90;;;;;;10446824;28;20016;-69
2021/01/01 09:08:17;;;;;;;;;;;4.10;99.90;;;;;;10446434;28;20511;-68
2021/01/01 09:13:24;;;;;;;;;;;4.10;99.90;;;;;;10446082;28;19967;-67
2021/01/01 09:18:25;;;;;;;;;;;4.20;99.90;;;;;;10444874;28;20066;-67
2021/01/01 09:23:29;;;;;;;;;;;4.40;99.90;;;;;;10445098;28;19960;-68
2021/01/01 09:28:31;;;;;;;;;;;4.30;99.90;;;;;;10437283;28;19986;-70
2021/01/01 09:33:32;;;;;;;;;;;4.40;99.90;;;;;;10413092;28;100669;-68
2021/01/01 09:39:44;;;;;;;;;;;4.50;99.90;;;;;;10563385;27;19985;-66
2021/01/01 09:51:13;;;;;;;;;;;4.60;99.90;;;;;;10565976;27;19923;-68
2021/01/01 09:56:15;;;;;;;;;;;4.70;99.90;;;;;;10591102;28;20018;-68
2021/01/01 10:01:16;;;;;;;;;;;4.80;99.90;;;;;;10563417;28;20221;-68
2021/01/01 10:06:18;;;;;;;;;;;4.90;99.90;;;;;;10563105;28;19951;-68
2021/01/01 10:11:19;;;;;;;;;;;5.10;99.90;;;;;;10563151;28;19963;-68
2021/01/01 10:16:20;;;;;;;;;;;5.30;99.90;;;;;;10562876;28;20410;-68
2021/01/01 10:21:22;;;;;;;;;;;5.40;99.90;;;;;;10563392;28;19924;-68
2021/01/01 10:26:23;;;;;;;;;;;5.50;99.90;;;;;;10551981;28;19924;-68
2021/01/01 10:31:24;;;;;;;;;;;5.50;99.90;;;;;;10525382;28;19977;-68
2021/01/01 10:36:26;;;;;;;;;;;5.50;99.90;;;;;;10557972;28;19985;-68
2021/01/01 10:41:27;;;;;;;;;;;5.30;99.90;;;;;;10546654;28;20388;-68
2021/01/01 10:46:29;;;;;;;;;;;5.40;99.90;;;;;;10560412;28;19934;-68
2021/01/01 10:51:30;;;;;;;;;;;5.50;99.90;;;;;;10557946;28;20010;-67
2021/01/01 10:56:31;;;;;;;;;;;5.70;99.90;;;;;;10557803;28;20019;-68
2021/01/01 11:01:33;;;;;;;;;;;5.70;99.90;;;;;;10529705;28;20015;-68
2021/01/01 11:06:35;;;;;;;;;;;5.60;99.90;;;;;;10533608;28;19935;-68
2021/01/01 11:11:36;;;;;;;;;;;5.60;99.90;;;;;;10537760;28;19928;-68
2021/01/01 12:26:33;;;;;;;;;;;5.60;99.90;;;;;;10509286;28;19971;-68
2021/01/01 12:31:36;;;;;;;;;;;5.50;99.90;;;;;;10531760;28;20372;-68
2021/01/01 12:36:37;;;;;;;;;;;5.50;99.90;;;;;;10532159;28;20043;-68
2021/01/01 12:41:38;;;;;;;;;;;5.40;99.90;;;;;;10530589;28;20065;-68
2021/01/01 12:46:40;;;;;;;;;;;5.50;99.90;;;;;;10529948;28;20370;-68
2021/01/01 12:51:41;;;;;;;;;;;5.50;99.90;;;;;;10530294;28;20376;-68
2021/01/01 12:56:42;;;;;;;;;;;5.50;99.90;;;;;;10530535;28;19924;-68
2021/01/01 13:01:44;;;;;;;;;;;5.50;99.90;;;;;;10531465;28;19931;-68
2021/01/01 13:06:45;;;;;;;;;;;5.50;99.90;;;;;;10530213;28;19928;-68
2021/01/01 13:11:47;;;;;;;;;;;5.40;99.90;;;;;;10530294;28;19955;-68
2021/01/01 13:16:48;;;;;;;;;;;5.50;99.90;;;;;;10529967;28;19970;-68
2021/01/01 13:21:50;;;;;;;;;;;5.50;99.90;;;;;;10528304;28;20007;-68
2021/01/01 13:26:51;;;;;;;;;;;5.60;99.90;;;;;;10524996;28;20186;-68
2021/01/01 13:31:53;;;;;;;;;;;5.60;99.90;;;;;;10529829;28;20399;-68
2021/01/01 13:36:54;;;;;;;;;;;5.60;99.90;;;;;;10529572;28;19962;-68
2021/01/01 13:41:56;;;;;;;;;;;5.50;99.90;;;;;;10527951;28;20019;-68
2021/01/01 13:46:58;;;;;;;;;;;5.50;99.90;;;;;;10529633;28;19924;-68
2021/01/01 13:52:02;;;;;;;;;;;5.50;99.90;;;;;;10528773;28;19950;-68
2021/01/01 13:57:04;;;;;;;;;;;5.60;99.90;;;;;;10527958;28;20019;-68
2021/01/01 14:02:05;;;;;;;;;;;5.50;99.90;;;;;;10528663;28;20280;-68
2021/01/01 14:07:07;;;;;;;;;;;5.40;99.90;;;;;;10490173;28;20031;-68
2021/01/01 14:12:08;;;;;;;;;;;5.50;99.90;;;;;;10521311;28;20011;-68
2021/01/01 14:17:10;;;;;;;;;;;5.50;99.90;;;;;;10527422;28;19986;-68
2021/01/01 14:22:11;;;;;;;;;;;5.50;99.90;;;;;;10523805;28;19928;-68
2021/01/01 14:27:12;;;;;;;;;;;5.50;99.90;;;;;;10525335;28;19970;-68
2021/01/01 14:32:14;;;;;;;;;;;5.50;99.90;;;;;;10520167;28;20345;-68
2021/01/01 14:37:15;;;;;;;;;;;5.50;99.90;;;;;;10548156;27;19971;-68
2021/01/01 14:42:18;;;;;;;;;;;5.40;99.90;;;;;;10524911;28;20007;-68
2021/01/01 14:47:19;;;;;;;;;;;5.40;99.90;;;;;;10556176;28;20401;-68
2021/01/01 14:52:24;;;;;;;;;;;5.40;99.90;;;;;;10561880;28;19924;-68
2021/01/01 14:57:26;;;;;;;;;;;5.30;99.90;;;;;;10533740;28;19924;-68
2021/01/01 15:02:27;;;;;;;;;;;5.30;99.90;;;;;;10533901;28;19927;-68
2021/01/01 15:07:28;;;;;;;;;;;5.30;99.90;;;;;;10555081;28;20019;-68
2021/01/01 15:12:30;;;;;;;;;;;5.20;99.90;;;;;;10541016;28;20437;-68
2021/01/01 15:17:31;;;;;;;;;;;5.30;99.90;;;;;;10531843;28;19956;-68
2021/01/01 15:22:33;;;;;;;;;;;5.20;99.90;;;;;;10531983;28;20166;-68
2021/01/01 15:27:35;;;;;;;;;;;5.20;99.90;;;;;;10531347;28;20429;-68
2021/01/01 15:32:36;;;;;;;;;;;5.10;99.90;;;;;;10531440;28;20015;-68
2021/01/01 15:37:37;;;;;;;;;;;5.10;99.90;;;;;;10530851;28;20299;-68
2021/01/01 15:42:39;;;;;;;;;;;5.00;99.90;;;;;;10558617;28;19924;-68
2021/01/01 15:47:42;;;;;;;;;;;5.00;99.90;;;;;;10552005;28;19954;-68
2021/01/01 15:52:44;;;;;;;;;;;5.10;99.90;;;;;;10508117;28;19982;-68
2021/01/01 15:57:45;;;;;;;;;;;5.00;99.90;;;;;;10530417;28;19924;-68
2021/01/01 16:02:46;;;;;;;;;;;5.00;99.90;;;;;;10523866;28;20372;-67
2021/01/01 16:07:48;;;;;;;;;;;5.10;99.90;;;;;;10517771;28;19967;-68
2021/01/01 16:12:49;;;;;;;;;;;5.00;99.90;;;;;;10529884;28;19977;-68
2021/01/01 16:17:50;;;;;;;;;;;5.00;99.90;;;;;;10530721;28;19963;-68
2021/01/01 16:22:52;;;;;;;;;;;5.10;99.90;;;;;;10521923;28;19928;-65
2021/01/01 16:27:53;;;;;;;;;;;5.00;99.90;;;;;;10525508;28;20338;-66
2021/01/01 16:32:57;;;;;;;;;;;5.00;99.90;;;;;;10531411;28;20010;-66
2021/01/01 16:37:59;;;;;;;;;;;5.00;99.90;;;;;;10521427;28;19931;-65
2021/01/01 16:43:00;;;;;;;;;;;5.00;99.90;;;;;;10542965;28;20007;-66
2021/01/01 16:48:03;;;;;;;;;;;5.00;99.90;;;;;;10538464;28;20016;-66
2021/01/01 16:53:05;;;;;;;;;;;4.90;99.90;;;;;;10527279;28;20010;-66
2021/01/01 16:58:06;;;;;;;;;;;4.80;99.90;;;;;;10527456;28;20019;-66
2021/01/01 17:03:07;;;;;;;;;;;4.90;99.90;;;;;;10525015;28;19977;-66
2021/01/01 17:08:09;;;;;;;;;;;4.90;99.90;;;;;;10520471;28;20006;-66
2021/01/01 17:13:16;;;;;;;;;;;4.90;99.90;;;;;;10524232;28;19977;-66
2021/01/01 17:18:17;;;;;;;;;;;4.90;99.90;;;;;;10513285;28;20015;-66
2021/01/01 17:23:19;;;;;;;;;;;4.80;99.90;;;;;;10525001;28;19924;-66
2021/01/01 17:28:21;;;;;;;;;;;4.80;99.90;;;;;;10523833;28;19952;-66
2021/01/01 17:33:23;;;;;;;;;;;4.90;99.90;;;;;;10528337;28;20635;-66
2021/01/01 17:38:24;;;;;;;;;;;4.70;99.90;;;;;;10524559;28;20451;-66
2021/01/01 17:43:26;;;;;;;;;;;4.80;99.90;;;;;;10525203;28;19982;-66
2021/01/01 17:51:10;;;;;;;;;;;4.80;99.90;;;;;;10497920;27;19925;-66
2021/01/01 17:56:12;;;;;;;;;;;4.70;99.90;;;;;;10455194;28;20035;-66
2021/01/01 18:01:13;;;;;;;;;;;4.80;99.90;;;;;;10439371;28;19968;-66
2021/01/01 18:06:15;;;;;;;;;;;4.80;99.90;;;;;;10471571;28;20063;-66
2021/01/01 18:11:16;;;;;;;;;;;4.80;99.90;;;;;;10443159;28;20022;-66
2021/01/01 18:16:21;;;;;;;;;;;4.80;99.90;;;;;;10476254;28;20024;-66
2021/01/01 18:21:23;;;;;;;;;;;4.80;99.90;;;;;;10448898;28;20450;-66
2021/01/01 18:26:24;;;;;;;;;;;4.80;99.90;;;;;;10471715;28;19925;-66
2021/01/01 18:31:25;;;;;;;;;;;4.80;99.90;;;;;;10469044;28;19976;-66
2021/01/01 18:36:27;;;;;;;;;;;4.80;99.90;;;;;;10454064;28;19935;-66
2021/01/01 18:41:37;;;;;;;;;;;4.70;99.90;;;;;;10452176;28;19936;-66
2021/01/01 18:46:46;;;;;;;;;;;4.70;99.90;;;;;;10460559;28;20127;-66
2021/01/01 18:51:50;;;;;;;;;;;4.60;99.90;;;;;;10469368;28;20055;-66
2021/01/01 18:56:58;;;;;;;;;;;4.60;99.90;;;;;;10435456;28;20030;-66
2021/01/01 19:02:02;;;;;;;;;;;4.50;99.90;;;;;;10436080;28;19925;-66
2021/01/01 19:07:06;;;;;;;;;;;4.50;99.90;;;;;;10413818;28;19929;-66
2021/01/01 19:12:08;;;;;;;;;;;4.50;99.90;;;;;;10433954;28;19929;-66
2021/01/01 19:17:17;;;;;;;;;;;4.50;99.90;;;;;;10425457;28;20306;-66
2021/01/01 19:22:25;;;;;;;;;;;4.40;99.90;;;;;;10434050;28;20013;-66
2021/01/01 19:27:39;;;;;;;;;;;4.40;99.90;;;;;;10425774;28;20443;-66
2021/01/01 19:32:47;;;;;;;;;;;4.40;99.90;;;;;;10427282;28;19968;-66
2021/01/01 19:38:07;;;;;;;;;;;4.40;99.90;;;;;;10441431;28;19960;-66
2021/01/01 19:43:14;;;;;;;;;;;4.40;99.90;;;;;;10412452;28;20043;-66
2021/01/01 19:48:29;;;;;;;;;;;4.50;99.90;;;;;;10406500;28;20424;-66
2021/01/01 19:53:37;;;;;;;;;;;4.40;99.90;;;;;;10441616;28;20019;-66
2021/01/01 19:58:44;;;;;;;;;;;4.50;99.90;;;;;;10385276;28;19972;-66
2021/01/01 20:03:49;;;;;;;;;;;4.40;99.90;;;;;;10438467;28;19975;-66
2021/01/01 20:08:55;;;;;;;;;;;4.30;99.90;;;;;;10410553;28;20483;-65
2021/01/01 20:13:59;;;;;;;;;;;4.40;99.90;;;;;;10418592;28;19951;-66
2021/01/01 20:19:02;;;;;;;;;;;4.50;99.90;;;;;;10429311;28;19975;-66
2021/01/01 20:24:07;;;;;;;;;;;4.40;99.90;;;;;;10421550;28;19928;-66
2021/01/01 20:29:10;;;;;;;;;;;4.40;99.90;;;;;;10423262;28;20431;-66
2021/01/01 20:34:19;;;;;;;;;;;4.40;99.90;;;;;;10422863;28;20020;-66
2021/01/01 20:39:22;;;;;;;;;;;4.30;99.90;;;;;;10405077;28;19983;-66
2021/01/01 20:44:39;;;;;;;;;;;4.20;99.90;;;;;;10403232;28;20410;-66
2021/01/01 21:00:27;;;;;;;;;;;3.80;99.90;;;;;;10375391;28;19925;-66
2021/01/01 21:05:31;;;;;;;;;;;3.80;99.90;;;;;;10404763;28;19975;-66
2021/01/01 21:10:50;;;;;;;;;;;3.70;99.90;;;;;;10403889;28;20017;-66
2021/01/01 21:15:53;;;;;;;;;;;3.60;99.90;;;;;;10402714;28;20343;-66
2021/01/01 21:21:13;;;;;;;;;;;3.70;99.90;;;;;;10402863;28;20361;-66
2021/01/01 21:26:38;;;;;;;;;;;3.70;99.90;;;;;;10401343;28;20436;-66
2021/01/01 21:31:58;;;;;;;;;;;3.50;99.90;;;;;;10433851;28;19994;-66
2021/01/01 21:37:03;;;;;;;;;;;3.60;99.90;;;;;;10430427;28;19925;-66
2021/01/01 21:42:10;;;;;;;;;;;3.70;99.90;;;;;;10443635;28;19924;-66
2021/01/01 21:47:14;;;;;;;;;;;3.70;99.90;;;;;;10443072;28;19925;-66
2021/01/01 21:52:19;;;;;;;;;;;3.70;99.90;;;;;;10417694;28;19933;-66
2021/01/01 21:57:21;;;;;;;;;;;3.50;99.90;;;;;;10429726;28;20016;-65
2021/01/01 22:02:26;;;;;;;;;;;3.60;99.90;;;;;;10442887;28;19994;-66
2021/01/01 22:07:34;;;;;;;;;;;3.60;99.90;;;;;;10416618;28;20047;-65
2021/01/01 22:12:37;;;;;;;;;;;3.50;99.90;;;;;;10425815;28;20277;-66
2021/01/01 22:17:38;;;;;;;;;;;3.40;99.90;;;;;;10409118;28;20002;-66
2021/01/01 22:22:40;;;;;;;;;;;3.40;99.90;;;;;;10404038;28;19972;-66
2021/01/01 22:27:41;;;;;;;;;;;3.20;99.90;;;;;;10403961;28;20004;-66
2021/01/01 22:32:43;;;;;;;;;;;3.20;99.90;;;;;;10428236;28;20183;-65
2021/01/01 22:37:44;;;;;;;;;;;3.20;99.90;;;;;;10449320;28;19972;-66
2021/01/01 22:42:45;;;;;;;;;;;3.20;99.90;;;;;;10427049;28;20377;-66
2021/01/01 22:47:46;;;;;;;;;;;3.20;99.90;;;;;;10423950;28;19971;-66
2021/01/01 22:52:48;;;;;;;;;;;3.30;99.90;;;;;;10433591;28;19925;-66
2021/01/01 22:57:49;;;;;;;;;;;3.30;99.90;;;;;;10440485;28;20028;-66
2021/01/01 23:02:50;;;;;;;;;;;3.30;99.90;;;;;;10415986;28;20357;-66
2021/01/01 23:07:52;;;;;;;;;;;3.40;99.90;;;;;;10442145;28;20265;-66
2021/01/01 23:12:54;;;;;;;;;;;3.40;99.90;;;;;;10440564;28;20122;-65
2021/01/01 23:17:56;;;;;;;;;;;3.30;99.90;;;;;;10430908;28;19968;-65
2021/01/01 23:23:01;;;;;;;;;;;3.20;99.90;;;;;;10427102;28;20411;-66
2021/01/01 23:28:02;;;;;;;;;;;3.10;99.90;;;;;;10408954;28;19952;-66
2021/01/01 23:33:07;;;;;;;;;;;3.20;99.90;;;;;;10408496;28;20332;-66
2021/01/01 23:38:23;;;;;;;;;;;3.10;99.90;;;;;;10407853;28;20008;-66
2021/01/01 23:43:31;;;;;;;;;;;3.20;99.90;;;;;;10433758;28;20002;-66
2021/01/01 23:48:36;;;;;;;;;;;3.20;99.90;;;;;;10434878;28;20203;-66
2021/01/01 23:53:38;;;;;;;;;;;3.20;99.90;;;;;;10407290;28;20371;-66
2021/01/01 23:58:42;;;;;;;;;;;3.10;99.90;;;;;;10434916;28;19933;-66
